Time;durP1;ratioP1;P1;durP2;ratioP2;P2;SDS_P1;SDS_P2;PMS_P1;PMS_P2;Temp;Humidity;BMP_temperature;BMP_pressure;BME280_temperature;BME280_humidity;BME280_pressure;Samples;Min_cycle;Max_cycle;Signal;HPM_P1;HPM_P2
2023/10/31 00:00:08;;;;;;;10.00;4.30;;;13.90;99.90;;;14.25;99.70;99553.09;4820230;29;20469;-63
2023/10/31 00:02:36;;;;;;;6.63;4.07;;;13.90;99.90;;;14.22;99.46;99549.69;4826786;29;20078;-66
2023/10/31 00:05:06;;;;;;;7.72;3.85;;;13.90;99.90;;;14.20;99.61;99551.56;4826621;29;20046;-65
2023/10/31 00:07:35;;;;;;;7.68;4.00;;;13.80;99.90;;;14.22;99.86;99552.38;4826707;29;20047;-65
2023/10/31 00:10:04;;;;;;;5.95;4.00;;;13.80;99.90;;;13.48;99.69;99427.78;4810673;29;20450;-66
2023/10/31 00:12:33;;;;;;;6.88;3.92;;;13.90;99.90;;;14.21;100.00;99553.28;4826596;29;20077;-66
2023/10/31 00:15:01;;;;;;;6.68;4.10;;;13.90;99.90;;;14.21;99.93;99553.28;4826530;29;20409;-66
2023/10/31 00:17:30;;;;;;;6.72;4.20;;;13.90;99.90;;;14.18;100.00;99550.75;4826535;29;20050;-65
2023/10/31 00:19:58;;;;;;;7.45;4.43;;;13.80;99.90;;;14.13;100.00;99558.06;4826960;29;20374;-66
2023/10/31 00:22:27;;;;;;;9.13;4.00;;;13.80;99.90;;;14.18;100.00;99550.75;4812335;29;20408;-66
2023/10/31 00:24:56;;;;;;;6.85;4.50;;;13.80;99.90;;;14.21;100.00;99542.63;4826368;29;20073;-66
2023/10/31 00:27:25;;;;;;;5.85;4.18;;;13.90;99.90;;;14.23;100.00;99543.44;4826288;29;20051;-66
2023/10/31 00:29:53;;;;;;;5.82;4.18;;;13.90;99.90;;;14.22;100.00;99547.91;4810277;29;20066;-66
2023/10/31 00:32:25;;;;;;;6.25;4.50;;;13.90;99.90;;;14.25;100.00;99554.88;4826569;29;20050;-65
2023/10/31 00:34:54;;;;;;;7.25;5.50;;;13.90;99.90;;;14.25;100.00;99550.44;4817055;29;20138;-66
2023/10/31 00:37:22;;;;;;;8.85;5.28;;;13.90;99.90;;;14.18;100.00;99542.78;4810184;29;20483;-66
2023/10/31 00:39:50;;;;;;;8.10;5.22;;;13.90;99.90;;;14.22;100.00;99547.91;4826431;29;20057;-66
2023/10/31 00:42:20;;;;;;;8.35;5.57;;;14.00;99.90;;;14.28;100.00;99557.47;4826364;29;20050;-66
2023/10/31 00:44:48;;;;;;;9.45;5.45;;;13.90;99.90;;;14.21;100.00;99562.13;4826305;29;20115;-66
2023/10/31 00:47:17;;;;;;;9.30;5.93;;;13.90;99.90;;;14.18;100.00;99564.91;4810718;29;20064;-66
2023/10/31 00:49:46;;;;;;;10.30;6.78;;;13.80;99.90;;;14.22;100.00;99571.84;4820136;29;20099;-66
2023/10/31 00:52:14;;;;;;;7.90;5.43;;;13.90;99.90;;;13.63;100.00;99463.50;4825891;29;20052;-66
2023/10/31 00:54:43;;;;;;;7.25;5.60;;;13.90;99.90;;;14.26;100.00;99575.25;4825928;29;20050;-67
2023/10/31 00:57:11;;;;;;;8.38;5.13;;;13.90;99.90;;;14.23;100.00;99586.00;4822418;29;20064;-66
2023/10/31 00:59:42;;;;;;;6.43;5.10;;;13.90;99.90;;;14.27;100.00;99590.25;4826176;29;20042;-67
2023/10/31 01:02:11;;;;;;;10.68;5.82;;;14.00;99.90;;;14.32;100.00;99583.03;4813645;29;20146;-66
2023/10/31 01:04:39;;;;;;;8.63;5.18;;;14.00;99.90;;;14.35;100.00;99602.38;4795533;29;20142;-66
2023/10/31 01:07:11;;;;;;;7.38;4.88;;;14.00;99.90;;;14.39;100.00;99596.00;4825645;29;20142;-66
2023/10/31 01:09:40;;;;;;;7.30;4.55;;;14.10;99.90;;;14.37;100.00;99604.97;4825748;29;20471;-66
2023/10/31 01:12:10;;;;;;;6.07;4.85;;;14.00;99.90;;;14.28;100.00;99608.00;4825639;29;20081;-66
2023/10/31 01:14:38;;;;;;;5.57;4.20;;;13.90;99.90;;;14.27;100.00;99603.56;4826172;29;20046;-66
2023/10/31 01:17:08;;;;;;;8.98;4.28;;;13.90;99.90;;;14.06;100.00;99609.72;4825858;29;20061;-66
2023/10/31 01:19:36;;;;;;;7.60;4.87;;;13.80;99.90;;;14.11;100.00;99613.94;4825505;29;20516;-66
2023/10/31 01:22:07;;;;;;;6.68;4.32;;;13.80;99.90;;;14.13;100.00;99614.75;4825842;29;20283;-66
2023/10/31 01:24:36;;;;;;;5.15;4.28;;;13.80;99.90;;;14.04;100.00;99624.88;4825846;29;20046;-66
2023/10/31 01:27:05;;;;;;;8.32;3.70;;;13.70;99.90;;;14.04;100.00;99616.91;4825074;29;20150;-66
2023/10/31 01:29:33;;;;;;;4.80;3.45;;;13.70;99.90;;;14.09;100.00;99631.75;4811573;29;20050;-65
2023/10/31 01:32:02;;;;;;;5.78;3.53;;;13.70;99.90;;;14.11;100.00;99629.88;4809256;29;20123;-65
2023/10/31 01:34:46;;;;;;;4.75;3.38;;;13.70;99.90;;;14.17;100.00;99631.44;4825646;29;20054;-65
2023/10/31 01:37:19;;;;;;;5.53;3.60;;;13.80;99.90;;;14.19;100.00;99627.81;4825318;29;20489;-65
2023/10/31 01:39:48;;;;;;;6.50;3.83;;;13.80;99.90;;;14.24;100.00;99641.81;4818494;29;20098;-66
2023/10/31 01:42:17;;;;;;;3.80;3.33;;;13.90;99.90;;;14.26;100.00;99644.41;4825489;29;20054;-66
2023/10/31 01:44:46;;;;;;;3.85;3.55;;;13.90;99.90;;;14.29;100.00;99644.31;4809746;29;20046;-65
2023/10/31 01:47:15;;;;;;;10.45;3.88;;;13.90;99.90;;;14.30;100.00;99646.06;4819888;29;20078;-66
2023/10/31 01:49:44;;;;;;;4.28;3.50;;;14.00;99.90;;;14.30;100.00;99651.38;4825020;29;20046;-67
2023/10/31 01:52:13;;;;;;;6.32;3.85;;;14.00;99.90;;;14.30;100.00;99652.22;4811245;29;20088;-65
2023/10/31 01:54:41;;;;;;;4.85;3.67;;;14.00;99.90;;;14.29;100.00;99654.94;4825244;29;20039;-65
2023/10/31 01:57:10;;;;;;;5.68;4.43;;;14.00;99.90;;;14.36;100.00;99678.59;4808915;29;20058;-66
2023/10/31 01:59:40;;;;;;;6.15;4.03;;;14.00;99.90;;;14.31;100.00;99650.44;4808809;29;20058;-66
2023/10/31 02:02:08;;;;;;;5.82;3.70;;;14.00;99.90;;;14.35;100.00;99662.69;4793871;29;20141;-65
2023/10/31 02:04:37;;;;;;;6.53;3.72;;;14.00;99.90;;;14.39;100.00;99664.31;4825178;29;20038;-65
2023/10/31 02:07:07;;;;;;;6.10;3.63;;;14.10;99.90;;;14.41;100.00;99675.75;4825028;29;20162;-66
2023/10/31 02:09:35;;;;;;;6.70;4.40;;;14.10;99.90;;;14.40;100.00;99669.56;4824793;29;20403;-66
2023/10/31 02:12:04;;;;;;;7.32;3.60;;;14.10;99.90;;;14.38;100.00;99671.41;4808596;29;20053;-66
2023/10/31 02:14:33;;;;;;;5.80;3.30;;;14.10;99.90;;;14.38;100.00;99667.91;4824970;29;20057;-66
2023/10/31 02:17:01;;;;;;;6.43;3.58;;;14.10;99.90;;;14.34;100.00;99669.78;4824938;29;20119;-66
2023/10/31 02:19:32;;;;;;;6.72;3.05;;;14.10;99.90;;;13.85;100.00;99606.09;4824876;29;20396;-65
2023/10/31 02:22:02;;;;;;;4.43;3.20;;;14.00;99.90;;;14.16;100.00;99675.81;4824712;29;20083;-65
2023/10/31 02:24:31;;;;;;;9.43;3.78;;;13.90;99.90;;;14.15;100.00;99663.41;4824670;29;20066;-66
2023/10/31 02:26:59;;;;;;;6.45;3.20;;;13.90;99.90;;;14.23;100.00;99681.75;4824382;29;20467;-65
2023/10/31 02:29:28;;;;;;;9.43;3.75;;;13.90;99.90;;;14.17;100.00;99669.53;4824512;29;20053;-65
2023/10/31 02:31:56;;;;;;;7.10;3.70;;;13.90;99.90;;;14.09;100.00;99673.44;4808377;29;20054;-65
2023/10/31 02:34:26;;;;;;;6.63;3.10;;;13.80;99.90;;;14.13;100.00;99675.06;4824423;29;20077;-65
2023/10/31 02:36:54;;;;;;;6.32;3.10;;;13.80;99.90;;;13.99;100.00;99677.38;4824419;29;20057;-65
2023/10/31 02:39:24;;;;;;;5.85;3.00;;;13.80;99.90;;;13.97;100.00;99676.56;4824579;29;20378;-65
2023/10/31 02:41:53;;;;;;;4.53;3.42;;;13.70;99.90;;;13.90;100.00;99673.25;4808127;29;20497;-67
2023/10/31 02:44:21;;;;;;;5.97;3.40;;;13.60;99.90;;;13.88;100.00;99674.25;4824270;29;20581;-65
2023/10/31 02:46:49;;;;;;;6.25;3.25;;;13.60;99.90;;;13.89;100.00;99679.50;4817859;29;20050;-65
2023/10/31 02:49:18;;;;;;;3.85;3.17;;;13.60;99.90;;;13.18;100.00;99590.91;4824272;29;20492;-65
2023/10/31 02:51:46;;;;;;;5.40;3.10;;;13.50;99.90;;;13.00;99.95;99551.69;4808006;29;20103;-66
2023/10/31 02:54:15;;;;;;;3.13;2.85;;;13.50;99.90;;;13.80;99.57;99689.59;4824491;29;20053;-65
2023/10/31 02:56:44;;;;;;;4.18;3.00;;;13.50;99.90;;;13.78;99.15;99681.66;4807842;29;20062;-66
2023/10/31 02:59:13;;;;;;;4.07;3.38;;;13.50;99.90;;;13.81;99.26;99678.03;4807862;29;20576;-66
2023/10/31 03:01:41;;;;;;;7.30;3.38;;;13.40;99.90;;;13.77;98.77;99679.06;4824347;29;20082;-65
2023/10/31 03:04:10;;;;;;;5.57;3.70;;;13.50;99.90;;;13.79;98.82;99679.88;4817039;29;20497;-66
2023/10/31 03:06:40;;;;;;;4.63;3.67;;;13.40;99.90;;;13.78;98.50;99686.97;4807960;29;20444;-66
2023/10/31 03:09:08;;;;;;;3.95;3.40;;;13.40;99.90;;;13.62;98.50;99666.34;4824232;29;20149;-66
2023/10/31 03:11:37;;;;;;;6.65;3.40;;;13.40;99.90;;;13.78;98.60;99702.06;4818305;29;20054;-66
2023/10/31 03:14:07;;;;;;;4.95;3.40;;;13.40;99.90;;;13.75;98.59;99691.53;4824094;29;20119;-66
2023/10/31 03:16:36;;;;;;;6.00;3.80;;;13.50;99.90;;;13.85;98.77;99709.78;4824125;29;20058;-67
2023/10/31 03:19:05;;;;;;;5.32;3.75;;;13.50;99.90;;;13.47;98.68;99651.84;4824208;29;20466;-67
2023/10/31 03:21:34;;;;;;;6.95;3.67;;;13.50;99.90;;;13.84;98.81;99710.69;4807629;29;20043;-66
2023/10/31 03:24:02;;;;;;;8.57;3.72;;;13.50;99.90;;;13.85;99.14;99712.44;4824341;29;20434;-67
2023/10/31 03:26:31;;;;;;;8.27;3.67;;;13.50;99.90;;;13.79;99.48;99712.66;4809635;29;20118;-67
2023/10/31 03:28:59;;;;;;;7.65;4.22;;;13.50;99.90;;;13.80;99.50;99705.53;4824330;29;20051;-67
2023/10/31 03:31:29;;;;;;;5.68;3.65;;;13.50;99.90;;;13.82;99.45;99703.72;4824069;29;20053;-66
2023/10/31 03:33:57;;;;;;;8.00;4.25;;;13.50;99.90;;;13.85;99.66;99701.78;4824002;29;20050;-66
2023/10/31 03:36:26;;;;;;;9.18;3.80;;;13.50;99.90;;;13.82;99.70;99698.38;4823690;29;20465;-66
2023/10/31 03:38:54;;;;;;;5.13;3.25;;;13.50;99.90;;;13.81;99.68;99694.84;4823652;29;20054;-66
2023/10/31 03:41:23;;;;;;;7.60;3.20;;;13.50;99.90;;;13.75;99.44;99699.50;4807479;29;20078;-67
2023/10/31 03:43:51;;;;;;;5.03;3.47;;;13.50;99.90;;;13.84;98.99;99693.88;4807437;29;20046;-66
2023/10/31 03:46:20;;;;;;;5.82;4.07;;;13.50;99.90;;;13.86;98.71;99708.81;4823537;29;20088;-66
2023/10/31 03:48:50;;;;;;;5.07;3.17;;;13.50;99.90;;;13.89;98.35;99694.56;4823729;29;20054;-66
2023/10/31 03:51:18;;;;;;;3.95;2.80;;;13.50;99.90;;;13.34;98.25;99606.22;4823502;29;20413;-66
2023/10/31 03:53:46;;;;;;;6.18;3.10;;;13.60;99.90;;;13.91;98.17;99700.69;4823740;29;20082;-66
2023/10/31 03:56:15;;;;;;;7.88;3.33;;;13.50;99.90;;;13.91;97.95;99709.56;4823437;29;20057;-66
2023/10/31 03:58:44;;;;;;;3.47;3.00;;;13.60;99.90;;;13.34;97.76;99622.16;4809751;29;20469;-66
2023/10/31 04:01:13;;;;;;;7.25;3.20;;;13.50;99.90;;;13.88;97.73;99725.59;4819908;29;20532;-65
2023/10/31 04:03:41;;;;;;;4.40;2.97;;;13.60;99.90;;;13.86;97.97;99726.59;4807145;29;20050;-65
2023/10/31 04:06:11;;;;;;;3.63;2.83;;;13.60;99.90;;;13.88;97.89;99730.06;4823388;29;20454;-66
2023/10/31 04:08:39;;;;;;;5.50;2.80;;;13.60;99.90;;;13.89;97.67;99735.31;4823844;29;20471;-65
2023/10/31 04:11:08;;;;;;;4.35;3.10;;;13.60;99.90;;;13.88;97.76;99732.72;4817326;29;20774;-66
2023/10/31 04:13:36;;;;;;;6.18;3.60;;;13.60;99.90;;;13.85;97.74;99732.81;4807174;29;20062;-65
2023/10/31 04:16:05;;;;;;;5.00;3.17;;;13.50;99.90;;;13.83;98.01;99737.31;4808852;29;20058;-66
2023/10/31 04:18:34;;;;;;;9.35;3.15;;;13.50;99.90;;;13.84;97.91;99749.69;4823298;29;20076;-66
2023/10/31 04:21:02;;;;;;;7.80;3.05;;;13.50;99.90;;;13.84;97.73;99741.72;4823272;29;20050;-65
2023/10/31 04:23:32;;;;;;;7.13;3.08;;;13.50;99.90;;;13.83;97.53;99750.59;4823235;29;20046;-65
2023/10/31 04:26:03;;;;;;;5.63;3.20;;;13.50;99.90;;;13.81;97.72;99749.78;4825193;29;20058;-66
2023/10/31 04:28:31;;;;;;;4.40;2.80;;;13.50;99.90;;;13.79;97.46;99759.59;4810193;29;20141;-66
2023/10/31 04:31:00;;;;;;;4.38;2.90;;;13.50;99.90;;;13.81;97.48;99763.09;4826343;29;20054;-65
2023/10/31 04:33:28;;;;;;;3.67;2.92;;;13.50;99.90;;;13.82;97.39;99759.53;4826275;29;20046;-66
2023/10/31 04:35:56;;;;;;;5.78;3.30;;;13.50;99.90;;;13.80;97.42;99761.38;4826277;29;20405;-66
2023/10/31 04:38:25;;;;;;;4.15;3.10;;;13.50;99.90;;;13.80;97.69;99764.03;4816990;29;20090;-66
2023/10/31 04:40:55;;;;;;;6.53;3.15;;;13.50;99.90;;;13.78;97.46;99766.72;4826172;29;20046;-65
2023/10/31 04:43:23;;;;;;;7.18;3.17;;;13.40;99.90;;;13.79;97.59;99768.47;4826141;29;20066;-66
2023/10/31 04:45:51;;;;;;;6.00;3.05;;;13.40;99.90;;;13.64;97.48;99745.09;4826143;29;20068;-65
2023/10/31 04:48:20;;;;;;;5.88;3.20;;;13.40;99.90;;;13.82;97.39;99770.16;4810008;29;20050;-66
2023/10/31 04:50:48;;;;;;;4.93;3.03;;;13.50;99.90;;;13.80;97.34;99769.34;4826063;29;20051;-66
2023/10/31 04:53:17;;;;;;;7.68;3.17;;;13.50;99.90;;;13.77;97.48;99772.09;4825978;29;20050;-66
2023/10/31 04:55:45;;;;;;;4.25;2.97;;;13.50;99.90;;;13.77;97.55;99780.94;4825973;29;20054;-65
2023/10/31 04:58:15;;;;;;;5.40;3.10;;;13.40;99.90;;;13.53;97.25;99781.75;4826438;29;20061;-65
2023/10/31 05:00:44;;;;;;;6.17;2.83;;;13.40;99.90;;;13.75;97.67;99805.81;4825880;29;20054;-65
2023/10/31 05:03:12;;;;;;;5.07;3.35;;;13.40;99.90;;;13.73;97.48;99802.34;4825849;29;20331;-66
2023/10/31 05:05:45;;;;;;;5.80;3.15;;;13.40;99.90;;;13.71;97.57;99807.72;4826354;29;20050;-66
2023/10/31 05:08:13;;;;;;;4.43;3.00;;;13.40;99.90;;;13.72;97.63;99806.81;4825866;29;20077;-66
2023/10/31 05:10:41;;;;;;;4.75;2.83;;;13.40;99.90;;;13.71;97.69;99804.19;4825724;29;20050;-66
2023/10/31 05:13:10;;;;;;;4.68;3.60;;;13.40;99.90;;;13.69;97.64;99806.91;4825710;29;20046;-65
2023/10/31 05:15:40;;;;;;;5.70;2.70;;;13.30;99.90;;;13.57;97.67;99800.22;4825577;29;20150;-66
2023/10/31 05:18:08;;;;;;;5.72;2.78;;;13.30;99.90;;;13.56;98.30;99808.25;4825655;29;20186;-66
2023/10/31 05:20:37;;;;;;;5.82;3.30;;;13.30;99.90;;;13.62;98.51;99820.44;4815890;29;20057;-66
2023/10/31 05:23:05;;;;;;;7.60;3.17;;;13.30;99.90;;;13.58;98.34;99817.91;4825537;29;20489;-65
2023/10/31 05:25:34;;;;;;;5.47;2.95;;;13.30;99.90;;;13.62;98.54;99828.41;4825343;29;20065;-66
2023/10/31 05:28:02;;;;;;;5.80;3.00;;;13.30;99.90;;;13.58;98.95;99823.22;4825372;29;20107;-65
2023/10/31 05:30:31;;;;;;;6.10;3.15;;;13.30;99.90;;;13.38;99.08;99793.78;4825734;29;20054;-65
2023/10/31 05:33:01;;;;;;;6.57;2.85;;;13.20;99.90;;;13.55;99.35;99819.75;4825587;29;20113;-65
2023/10/31 05:35:29;;;;;;;7.70;3.20;;;13.30;99.90;;;13.55;99.53;99823.31;4825404;29;20103;-67
2023/10/31 05:37:58;;;;;;;9.32;3.22;;;13.30;99.90;;;13.53;99.88;99827.78;4808134;29;20054;-68
2023/10/31 05:40:27;;;;;;;7.95;3.10;;;13.20;99.90;;;13.53;100.00;99824.25;4825172;29;20103;-67
2023/10/31 05:42:57;;;;;;;5.80;2.97;;;13.20;99.90;;;13.50;100.00;99832.34;4820650;29;20058;-66
2023/10/31 05:45:28;;;;;;;6.50;3.15;;;13.20;99.90;;;13.44;100.00;99833.41;4825191;29;20046;-66
2023/10/31 05:47:56;;;;;;;6.65;3.58;;;13.10;99.90;;;13.46;100.00;99836.91;4825107;29;20054;-66
2023/10/31 05:50:28;;;;;;;4.80;2.90;;;13.10;99.90;;;13.50;100.00;99835.00;4825088;29;20047;-66
2023/10/31 05:52:56;;;;;;;3.90;2.80;;;13.10;99.90;;;13.47;100.00;99838.63;4808707;29;20058;-66
2023/10/31 05:55:25;;;;;;;3.45;3.03;;;13.20;99.90;;;13.50;100.00;99845.63;4825280;29;20042;-66
2023/10/31 05:57:53;;;;;;;6.50;3.05;;;13.20;99.90;;;13.49;100.00;99843.91;4824956;29;20417;-66
2023/10/31 06:00:22;;;;;;;4.30;3.00;;;13.20;99.90;;;13.49;100.00;99842.09;4825229;29;20111;-66
2023/10/31 06:02:50;;;;;;;4.47;2.92;;;13.20;99.90;;;13.48;99.98;99843.03;4824817;29;20477;-66
2023/10/31 06:05:19;;;;;;;4.68;3.33;;;13.20;99.90;;;13.46;100.00;99844.00;4808661;29;20054;-66
2023/10/31 06:07:48;;;;;;;3.33;3.03;;;13.10;99.90;;;13.42;99.91;99840.56;4808655;29;20054;-66
2023/10/31 06:10:17;;;;;;;4.65;3.17;;;13.10;99.90;;;13.34;99.95;99825.78;4820578;29;20534;-66
2023/10/31 06:12:45;;;;;;;5.78;3.55;;;13.10;99.90;;;13.34;100.00;99839.94;4820965;29;20576;-67
2023/10/31 06:15:14;;;;;;;4.93;3.65;;;13.00;99.90;;;13.35;100.00;99849.66;4824629;29;20501;-65
2023/10/31 06:17:42;;;;;;;3.85;3.42;;;13.00;99.90;;;13.32;100.00;99851.53;4824636;29;20408;-64
2023/10/31 06:20:12;;;;;;;5.80;3.08;;;13.10;99.90;;;13.28;100.00;99850.75;4814004;29;20051;-64
2023/10/31 06:22:40;;;;;;;6.40;3.65;;;13.00;99.90;;;13.29;100.00;99854.28;4825070;29;20057;-64
2023/10/31 06:25:10;;;;;;;5.80;3.58;;;12.90;99.90;;;13.21;99.99;99857.19;4824347;29;20501;-64
2023/10/31 06:27:39;;;;;;;4.78;3.30;;;13.00;99.90;;;13.16;100.00;99860.91;4824649;29;20424;-65
2023/10/31 06:30:09;;;;;;;5.53;3.45;;;12.90;99.90;;;13.17;100.00;99870.59;4808206;29;20050;-64
2023/10/31 06:32:54;;;;;;;5.18;3.80;;;12.90;99.90;;;13.16;100.00;99867.06;4824701;29;20403;-64
2023/10/31 06:35:25;;;;;;;6.35;3.72;;;12.90;99.90;;;13.20;100.00;99865.22;4824488;29;20053;-64
2023/10/31 06:37:56;;;;;;;6.43;3.97;;;12.80;99.90;;;13.19;100.00;99856.38;4824706;29;20049;-64
2023/10/31 06:40:26;;;;;;;5.55;3.92;;;12.90;99.90;;;13.11;100.00;99861.03;4824938;29;20069;-63
2023/10/31 06:42:55;;;;;;;5.93;4.32;;;12.80;99.90;;;13.17;100.00;99881.22;4815710;29;20570;-64
2023/10/31 06:45:25;;;;;;;6.93;4.33;;;12.90;99.90;;;13.21;100.00;99891.72;4824170;29;20042;-63
2023/10/31 06:47:54;;;;;;;6.72;4.00;;;12.90;99.90;;;13.17;100.00;99900.69;4823871;29;20050;-64
2023/10/31 06:50:22;;;;;;;7.03;4.00;;;12.90;99.90;;;13.25;100.00;99896.00;4824122;29;20128;-63
2023/10/31 06:52:51;;;;;;;6.63;4.00;;;12.90;99.90;;;13.26;100.00;99887.13;4824170;29;20138;-64
2023/10/31 06:55:19;;;;;;;7.57;4.15;;;13.00;99.90;;;13.30;100.00;99882.56;4808709;29;20054;-63
2023/10/31 06:57:49;;;;;;;7.20;3.97;;;13.00;99.90;;;13.29;100.00;99892.34;4819031;29;20057;-63
2023/10/31 07:00:18;;;;;;;5.60;3.93;;;13.00;99.90;;;13.34;100.00;99903.69;4824097;29;20536;-63
2023/10/31 07:02:47;;;;;;;6.53;4.65;;;13.00;99.90;;;13.45;100.00;99916.66;4810020;29;20082;-64
2023/10/31 07:05:16;;;;;;;6.22;4.50;;;13.10;99.90;;;13.46;100.00;99905.97;4807731;29;20050;-64
2023/10/31 07:07:45;;;;;;;7.22;4.30;;;13.10;99.90;;;13.51;100.00;99909.34;4807676;29;20133;-63
2023/10/31 07:10:13;;;;;;;6.03;4.85;;;13.20;99.90;;;13.51;100.00;99911.16;4823766;29;20050;-63
2023/10/31 07:12:42;;;;;;;6.60;5.10;;;13.20;99.90;;;13.49;100.00;99907.66;4809481;29;20106;-63
2023/10/31 07:15:11;;;;;;;7.40;5.25;;;13.20;99.90;;;13.48;100.00;99922.72;4823901;29;20077;-64
2023/10/31 07:17:41;;;;;;;8.00;5.00;;;13.20;99.90;;;13.30;100.00;99898.50;4823917;29;20123;-63
2023/10/31 07:20:11;;;;;;;7.32;4.90;;;13.20;99.90;;;13.41;100.00;99933.59;4823931;29;20050;-63
2023/10/31 07:22:39;;;;;;;6.90;4.95;;;13.10;99.90;;;13.48;100.00;99945.75;4823757;29;20528;-64
2023/10/31 07:25:09;;;;;;;12.07;5.68;;;13.20;99.90;;;13.50;100.00;99942.16;4823574;29;20085;-64
2023/10/31 07:27:37;;;;;;;9.07;5.30;;;13.20;99.90;;;13.57;100.00;99943.69;4823788;29;20055;-63
2023/10/31 07:30:07;;;;;;;7.70;4.72;;;13.20;99.90;;;13.49;100.00;99935.06;4823719;29;20050;-63
2023/10/31 07:32:37;;;;;;;8.87;4.50;;;13.20;99.90;;;13.51;100.00;99933.25;4823733;29;20050;-63
2023/10/31 07:35:07;;;;;;;9.18;4.93;;;13.20;99.90;;;13.41;100.00;99939.75;4823666;29;20640;-63
2023/10/31 07:37:36;;;;;;;9.30;4.70;;;13.10;99.90;;;13.47;100.00;99942.22;4808038;29;20054;-63
2023/10/31 07:40:06;;;;;;;8.10;4.38;;;13.10;99.90;;;13.51;100.00;99941.22;4823879;29;20302;-63
2023/10/31 07:42:34;;;;;;;12.43;5.38;;;13.20;99.90;;;13.53;100.00;99931.41;4823601;29;20054;-64
2023/10/31 07:45:02;;;;;;;10.13;5.07;;;13.20;99.90;;;13.67;100.00;99946.03;4823450;29;20054;-63
2023/10/31 07:47:31;;;;;;;9.43;5.60;;;13.30;99.90;;;13.65;100.00;99930.16;4823846;29;20065;-63
2023/10/31 07:50:01;;;;;;;11.20;5.65;;;13.30;99.90;;;13.74;100.00;99937.84;4807384;29;20047;-63
2023/10/31 07:52:29;;;;;;;11.73;6.00;;;13.40;99.90;;;13.72;100.00;99933.50;4823473;29;20047;-64
2023/10/31 07:54:58;;;;;;;7.63;5.65;;;13.40;99.90;;;13.79;100.00;99948.31;4823399;29;20057;-64
2023/10/31 07:57:26;;;;;;;8.75;6.10;;;13.40;99.90;;;13.88;100.00;99943.56;4823437;29;20050;-64
2023/10/31 07:59:54;;;;;;;11.90;7.28;;;13.60;99.90;;;14.18;100.00;99968.28;4823699;29;20057;-63
2023/10/31 08:02:23;;;;;;;11.57;7.03;;;13.80;99.90;;;14.52;100.00;99952.09;4810744;29;20050;-64
2023/10/31 08:04:51;;;;;;;13.02;8.15;;;14.20;99.90;;;14.80;100.00;99948.38;4827261;29;20058;-63
2023/10/31 08:07:23;;;;;;;14.23;9.40;;;14.50;99.90;;;15.23;100.00;99960.97;4817804;29;20078;-63
2023/10/31 08:09:51;;;;;;;15.85;9.25;;;14.90;99.90;;;15.63;100.00;99969.19;4826638;29;20054;-64
2023/10/31 08:12:20;;;;;;;13.32;9.07;;;15.30;99.90;;;15.47;100.00;99881.88;4826659;29;20074;-63
2023/10/31 08:14:48;;;;;;;13.85;10.23;;;15.60;99.90;;;16.34;98.31;99973.41;4826519;29;20057;-63
2023/10/31 08:17:16;;;;;;;14.70;9.90;;;16.10;99.90;;;16.61;95.96;99965.09;4826617;29;20077;-66
2023/10/31 08:19:47;;;;;;;13.35;9.60;;;16.40;99.90;;;16.81;94.06;99967.78;4826460;29;20066;-63
2023/10/31 08:22:16;;;;;;;18.95;9.70;;;16.60;99.90;;;16.88;92.03;99974.56;4826549;29;20065;-63
2023/10/31 08:24:46;;;;;;;18.08;9.48;;;16.70;99.90;;;16.71;91.22;99976.25;4826406;29;20054;-63
2023/10/31 08:27:14;;;;;;;14.83;9.23;;;16.60;99.90;;;16.60;91.06;99978.53;4811782;29;20062;-63
2023/10/31 08:29:43;;;;;;;20.88;9.15;;;16.40;99.90;;;16.41;91.31;99965.06;4826269;29;20062;-63
2023/10/31 08:32:12;;;;;;;14.60;8.05;;;16.20;99.90;;;16.41;91.90;99988.22;4826301;29;20133;-61
2023/10/31 08:34:41;;;;;;;15.02;7.47;;;16.10;99.90;;;16.27;92.29;99987.00;4813438;29;20054;-61
2023/10/31 08:37:09;;;;;;;12.38;6.97;;;16.00;99.90;;;16.19;92.40;99989.13;4826265;29;20058;-62
2023/10/31 08:39:38;;;;;;;10.77;6.55;;;15.90;99.90;;;15.97;92.79;99987.38;4826121;29;20057;-61
2023/10/31 08:42:07;;;;;;;15.85;5.95;;;15.80;99.90;;;15.91;93.49;99982.31;4810087;29;20054;-64
2023/10/31 08:44:37;;;;;;;10.45;5.07;;;15.60;99.90;;;15.78;93.57;99987.25;4826355;29;20056;-65
2023/10/31 08:47:06;;;;;;;10.23;5.40;;;15.50;99.90;;;15.74;93.11;99987.41;4826276;29;20046;-62
2023/10/31 08:49:34;;;;;;;9.80;4.60;;;15.40;99.90;;;15.65;92.74;99988.66;4826195;29;20446;-64
2023/10/31 08:52:04;;;;;;;9.63;4.72;;;15.30;99.90;;;15.64;92.49;99984.25;4825987;29;20038;-63
2023/10/31 08:54:32;;;;;;;8.98;4.63;;;15.30;99.90;;;15.62;92.53;99991.44;4825966;29;20056;-63
2023/10/31 08:57:01;;;;;;;9.82;4.63;;;15.20;99.90;;;15.58;92.67;99995.16;4809838;29;20137;-63
2023/10/31 08:59:30;;;;;;;9.57;4.97;;;15.30;99.90;;;15.57;92.83;100000.53;4826128;29;20437;-63
2023/10/31 09:01:59;;;;;;;12.45;5.03;;;15.20;99.90;;;14.92;93.09;99891.16;4795703;29;20154;-63
2023/10/31 09:04:27;;;;;;;11.13;5.38;;;15.20;99.90;;;15.56;93.59;100006.81;4825997;29;20050;-64
2023/10/31 09:06:56;;;;;;;10.85;4.93;;;15.20;99.90;;;15.55;94.05;100008.59;4825821;29;20069;-63
2023/10/31 09:09:24;;;;;;;11.70;5.53;;;15.20;99.90;;;15.67;93.88;100015.25;4825705;29;20050;-63
2023/10/31 09:11:53;;;;;;;10.52;5.25;;;15.30;99.90;;;15.66;94.24;100025.06;4825313;29;20099;-63
2023/10/31 09:14:24;;;;;;;12.10;6.07;;;15.30;99.90;;;15.69;94.21;100029.41;4825476;29;20503;-63
2023/10/31 09:16:54;;;;;;;13.10;5.53;;;15.30;99.90;;;15.72;94.29;100024.81;4809440;29;20059;-63
2023/10/31 09:19:22;;;;;;;11.43;5.13;;;15.40;99.90;;;15.70;94.44;100034.66;4825557;29;20110;-63
2023/10/31 09:21:51;;;;;;;11.65;5.70;;;15.40;99.90;;;15.70;94.38;100031.16;4818348;29;20058;-63
2023/10/31 09:24:19;;;;;;;13.50;5.40;;;15.40;99.90;;;15.69;94.52;100026.72;4825490;29;20409;-63
2023/10/31 09:26:48;;;;;;;13.55;5.38;;;15.40;99.90;;;15.75;94.52;100038.03;4825615;29;20512;-63
2023/10/31 09:29:16;;;;;;;15.30;5.85;;;15.40;99.90;;;15.72;95.08;100031.94;4825864;29;20114;-63
2023/10/31 09:31:59;;;;;;;12.73;5.45;;;15.40;99.90;;;16.14;97.92;100038.28;4825439;29;20058;-63
2023/10/31 09:34:27;;;;;;;;;;;15.80;99.90;;;16.52;98.06;100039.38;4826090;29;20054;-63
2023/10/31 09:36:56;;;;;;;12.15;5.25;;;16.20;99.90;;;16.66;95.91;100048.56;4825878;29;19925;-63
2023/10/31 09:39:24;;;;;;;13.63;5.97;;;16.40;99.90;;;16.62;94.04;100043.41;4825793;29;20065;-63
2023/10/31 09:41:53;;;;;;;15.93;6.13;;;16.40;99.90;;;16.56;93.17;100055.22;4811658;29;20141;-63
2023/10/31 09:44:22;;;;;;;16.20;5.53;;;16.30;99.90;;;16.45;92.98;100049.44;4821651;29;20394;-63
2023/10/31 09:46:52;;;;;;;13.80;6.10;;;16.20;99.90;;;16.37;93.13;100040.00;4825402;29;20047;-63
2023/10/31 09:49:22;;;;;;;11.75;5.78;;;16.20;99.90;;;16.44;93.48;100050.34;4825180;29;20050;-63
2023/10/31 09:51:51;;;;;;;15.15;7.07;;;16.10;99.90;;;16.33;93.27;100054.38;4810953;29;20050;-63
2023/10/31 09:54:20;;;;;;;17.65;7.20;;;16.00;99.90;;;16.06;93.51;100025.25;4825073;29;20058;-63
2023/10/31 09:56:51;;;;;;;22.65;7.22;;;16.00;99.90;;;16.23;93.57;100062.78;4814133;29;20066;-63
2023/10/31 09:59:20;;;;;;;17.92;5.88;;;15.90;99.90;;;16.11;93.58;100062.38;4825080;29;20065;-63
2023/10/31 10:01:48;;;;;;;14.55;5.88;;;15.80;99.90;;;16.09;93.34;100061.56;4824889;29;20121;-63
2023/10/31 10:04:18;;;;;;;17.00;6.28;;;15.70;99.90;;;16.10;93.38;100064.19;4815935;29;20097;-63
2023/10/31 10:07:01;;;;;;;11.60;4.70;;;15.80;99.90;;;15.93;93.78;100068.47;4808687;29;20069;-63
2023/10/31 10:09:31;;;;;;;12.98;5.63;;;15.60;99.90;;;15.71;94.55;100043.53;4825387;29;20098;-63
2023/10/31 10:12:01;;;;;;;14.57;5.38;;;15.50;99.90;;;15.87;95.05;100074.03;4824717;29;20065;-64
2023/10/31 10:14:31;;;;;;;12.63;4.95;;;15.50;99.90;;;15.89;95.44;100074.84;4824834;29;20046;-63
2023/10/31 10:17:00;;;;;;;15.02;5.72;;;15.60;99.90;;;15.96;95.62;100077.22;4825394;29;20088;-64
2023/10/31 10:19:29;;;;;;;13.95;5.25;;;15.60;99.90;;;15.99;95.81;100081.53;4824593;29;20095;-64